Messwerte Kisumu

Temperatur

Temperatur
°C
1574114400 1.00 1.00
1574118000 2.00 2.00
1574121600 3.00 3.00
1574125200 4.00 4.00 19
1574128800 5.00 5.00 19
1574132400 6.00 6.00 19
1574136000 7.00 7.00 20
1574139600 8.00 8.00 21
1574143200 9.00 9.00 24
1574146800 10.00 10.00
1574150400 11.00 11.00
1574154000 12.00 12.00 26
1574157600 13.00 13.00 27
1574161200 14.00 14.00 28
1574164800 15.00 15.00 28
1574168400 16.00 16.00 28
1574172000 17.00 17.00 28
1574175600 18.00 18.00
1574179200 19.00 19.00 23
1574182800 20.00 20.00 23
1574186400 21.00 21.00 23
1574190000 22.00 22.00 23
1574193600 23.00 23.00
1574197200 0.00 0.00 21

Aktuellste Messwerte

Wettercharakter
Wetter: freundlich
Temperatur
21 °C
Feuchtigkeit
94 %
Wind
5 km/hWindrichtung: Nordost
Luftdruck
1016 hPa
Messzeit: 20. November 2019, 0.00Datenquelle: METAR

Weitere Messstationen in der Nähe

Messstation Temperatur Entfernung
Eldoret 17 °C 91 km
Musoma 21 °C 188 km
Entebbe - 256 km
Nairobi 19 °C 267 km
Nairobi 17 °C 277 km
Mwanza 21 °C 333 km
Bukoba 20 °C 353 km
Arusha 19 °C 415 km

Wind

Windrichtung Böen Mittelwind
° km/h km/h
1574114400 1.00 0.00 - 1.00
1574118000 2.00 1.00 - 2.00
1574121600 3.00 2.00 - 3.00
1574125200 4.00 3.00 - 4.00 60° 5
1574128800 5.00 4.00 - 5.00 70° 10
1574132400 6.00 5.00 - 6.00 0
1574136000 7.00 6.00 - 7.00 0
1574139600 8.00 7.00 - 8.00 0
1574143200 9.00 8.00 - 9.00 5
1574146800 10.00 9.00 - 10.00
1574150400 11.00 10.00 - 11.00
1574154000 12.00 11.00 - 12.00 230° 15
1574157600 13.00 12.00 - 13.00 230° 15
1574161200 14.00 13.00 - 14.00 220° 10
1574164800 15.00 14.00 - 15.00 210° 15
1574168400 16.00 15.00 - 16.00 230° 20
1574172000 17.00 16.00 - 17.00 230° 20
1574175600 18.00 17.00 - 18.00
1574179200 19.00 18.00 - 19.00 290° 15
1574182800 20.00 19.00 - 20.00 300° 10
1574186400 21.00 20.00 - 21.00 0
1574190000 22.00 21.00 - 22.00 230° 5
1574193600 23.00 22.00 - 23.00
1574197200 0.00 23.00 - 0.00 60° 5

Ihre Wetterstation

Fehlt Ihre Wetterstation auf unserem Portal?

Schreiben Sie an network@meteonews.ch

Klima

Wann ist es am wärmsten? Wann regnet es am wenigsten? Unsere Klimadaten geben Auskunft.